sensor_id;sensor_type;location;lat;lon;timestamp;P1;durP1;ratioP1;P2;durP2;ratioP2
68455;SDS011;55437;55.046;38.838;2024-01-30T00:00:23;13.63;;;5.68;;
68455;SDS011;55437;55.046;38.838;2024-01-30T00:02:49;13.52;;;6.32;;
68455;SDS011;55437;55.046;38.838;2024-01-30T00:05:33;14.73;;;5.43;;
68455;SDS011;55437;55.046;38.838;2024-01-30T00:07:59;15.18;;;6.43;;
68455;SDS011;55437;55.046;38.838;2024-01-30T00:10:25;16.23;;;5.93;;
68455;SDS011;55437;55.046;38.838;2024-01-30T00:12:51;14.00;;;6.18;;
68455;SDS011;55437;55.046;38.838;2024-01-30T00:15:16;13.57;;;6.35;;
68455;SDS011;55437;55.046;38.838;2024-01-30T00:18:02;14.48;;;5.75;;
68455;SDS011;55437;55.046;38.838;2024-01-30T00:20:28;14.82;;;6.10;;
68455;SDS011;55437;55.046;38.838;2024-01-30T00:22:54;18.00;;;6.43;;
68455;SDS011;55437;55.046;38.838;2024-01-30T00:25:20;14.25;;;6.30;;
68455;SDS011;55437;55.046;38.838;2024-01-30T00:27:46;16.17;;;6.78;;
68455;SDS011;55437;55.046;38.838;2024-01-30T00:30:12;14.63;;;6.00;;
68455;SDS011;55437;55.046;38.838;2024-01-30T00:32:39;14.40;;;6.63;;
68455;SDS011;55437;55.046;38.838;2024-01-30T00:35:05;15.05;;;6.57;;
68455;SDS011;55437;55.046;38.838;2024-01-30T00:37:31;15.55;;;5.78;;
68455;SDS011;55437;55.046;38.838;2024-01-30T00:39:57;13.50;;;6.60;;
68455;SDS011;55437;55.046;38.838;2024-01-30T00:42:23;15.68;;;5.90;;
68455;SDS011;55437;55.046;38.838;2024-01-30T00:44:50;15.25;;;6.00;;
68455;SDS011;55437;55.046;38.838;2024-01-30T00:47:16;14.52;;;6.30;;
68455;SDS011;55437;55.046;38.838;2024-01-30T00:49:41;12.57;;;5.82;;
68455;SDS011;55437;55.046;38.838;2024-01-30T00:52:07;15.63;;;6.03;;
68455;SDS011;55437;55.046;38.838;2024-01-30T00:54:33;16.33;;;6.45;;
68455;SDS011;55437;55.046;38.838;2024-01-30T00:57:00;15.93;;;6.63;;
68455;SDS011;55437;55.046;38.838;2024-01-30T00:59:26;16.38;;;6.53;;
68455;SDS011;55437;55.046;38.838;2024-01-30T01:01:51;13.85;;;6.50;;
68455;SDS011;55437;55.046;38.838;2024-01-30T01:04:17;13.63;;;5.85;;
68455;SDS011;55437;55.046;38.838;2024-01-30T01:06:43;14.93;;;5.95;;
68455;SDS011;55437;55.046;38.838;2024-01-30T01:09:10;14.18;;;5.85;;
68455;SDS011;55437;55.046;38.838;2024-01-30T01:11:37;14.60;;;6.10;;
68455;SDS011;55437;55.046;38.838;2024-01-30T01:14:04;14.68;;;6.45;;
68455;SDS011;55437;55.046;38.838;2024-01-30T01:16:30;16.13;;;6.43;;
68455;SDS011;55437;55.046;38.838;2024-01-30T01:18:56;15.10;;;6.28;;
68455;SDS011;55437;55.046;38.838;2024-01-30T01:21:22;15.55;;;6.93;;
68455;SDS011;55437;55.046;38.838;2024-01-30T01:23:48;15.00;;;5.95;;
68455;SDS011;55437;55.046;38.838;2024-01-30T01:26:14;15.77;;;6.07;;
68455;SDS011;55437;55.046;38.838;2024-01-30T01:28:40;15.27;;;6.00;;
68455;SDS011;55437;55.046;38.838;2024-01-30T01:31:07;15.13;;;6.13;;
68455;SDS011;55437;55.046;38.838;2024-01-30T01:33:33;16.80;;;6.50;;
68455;SDS011;55437;55.046;38.838;2024-01-30T01:36:00;14.25;;;6.45;;
68455;SDS011;55437;55.046;38.838;2024-01-30T01:38:28;14.15;;;6.47;;
68455;SDS011;55437;55.046;38.838;2024-01-30T01:40:54;13.77;;;6.25;;
68455;SDS011;55437;55.046;38.838;2024-01-30T01:43:20;16.55;;;6.60;;
68455;SDS011;55437;55.046;38.838;2024-01-30T01:45:46;16.65;;;6.38;;
68455;SDS011;55437;55.046;38.838;2024-01-30T01:48:12;15.10;;;7.00;;
68455;SDS011;55437;55.046;38.838;2024-01-30T01:50:56;17.05;;;6.15;;
68455;SDS011;55437;55.046;38.838;2024-01-30T01:53:23;16.40;;;7.28;;
68455;SDS011;55437;55.046;38.838;2024-01-30T01:55:50;16.13;;;6.85;;
68455;SDS011;55437;55.046;38.838;2024-01-30T01:58:18;14.95;;;6.95;;
68455;SDS011;55437;55.046;38.838;2024-01-30T02:00:45;16.10;;;6.93;;
68455;SDS011;55437;55.046;38.838;2024-01-30T02:03:12;13.18;;;6.93;;
68455;SDS011;55437;55.046;38.838;2024-01-30T02:05:41;13.98;;;6.38;;
68455;SDS011;55437;55.046;38.838;2024-01-30T02:08:10;16.30;;;7.65;;
68455;SDS011;55437;55.046;38.838;2024-01-30T02:10:36;15.13;;;5.95;;
68455;SDS011;55437;55.046;38.838;2024-01-30T02:13:02;15.77;;;6.88;;
68455;SDS011;55437;55.046;38.838;2024-01-30T02:15:28;16.58;;;7.43;;
68455;SDS011;55437;55.046;38.838;2024-01-30T02:17:55;16.02;;;7.50;;
68455;SDS011;55437;55.046;38.838;2024-01-30T02:20:40;15.50;;;6.40;;
68455;SDS011;55437;55.046;38.838;2024-01-30T02:23:07;15.90;;;5.88;;
68455;SDS011;55437;55.046;38.838;2024-01-30T02:25:38;18.75;;;7.13;;
68455;SDS011;55437;55.046;38.838;2024-01-30T02:28:12;17.63;;;7.15;;
68455;SDS011;55437;55.046;38.838;2024-01-30T02:30:42;15.52;;;6.72;;
68455;SDS011;55437;55.046;38.838;2024-01-30T02:33:08;16.10;;;6.95;;
68455;SDS011;55437;55.046;38.838;2024-01-30T02:35:34;16.95;;;6.32;;
68455;SDS011;55437;55.046;38.838;2024-01-30T02:38:01;17.05;;;6.70;;
68455;SDS011;55437;55.046;38.838;2024-01-30T02:40:27;15.60;;;6.43;;
68455;SDS011;55437;55.046;38.838;2024-01-30T02:42:54;16.88;;;6.90;;
68455;SDS011;55437;55.046;38.838;2024-01-30T02:45:20;17.75;;;6.78;;
68455;SDS011;55437;55.046;38.838;2024-01-30T02:47:46;15.05;;;6.65;;
68455;SDS011;55437;55.046;38.838;2024-01-30T02:50:12;16.17;;;6.53;;
68455;SDS011;55437;55.046;38.838;2024-01-30T02:52:39;18.85;;;7.85;;
68455;SDS011;55437;55.046;38.838;2024-01-30T02:55:05;14.80;;;6.95;;
68455;SDS011;55437;55.046;38.838;2024-01-30T02:57:31;16.92;;;6.97;;
68455;SDS011;55437;55.046;38.838;2024-01-30T02:59:57;16.63;;;6.03;;
68455;SDS011;55437;55.046;38.838;2024-01-30T03:02:23;15.13;;;6.32;;
68455;SDS011;55437;55.046;38.838;2024-01-30T03:04:49;15.98;;;5.80;;
68455;SDS011;55437;55.046;38.838;2024-01-30T03:07:15;16.10;;;7.38;;
68455;SDS011;55437;55.046;38.838;2024-01-30T03:09:42;16.30;;;6.85;;
68455;SDS011;55437;55.046;38.838;2024-01-30T03:12:09;19.20;;;7.15;;
68455;SDS011;55437;55.046;38.838;2024-01-30T03:14:35;18.40;;;6.88;;
68455;SDS011;55437;55.046;38.838;2024-01-30T03:17:03;15.57;;;6.18;;
68455;SDS011;55437;55.046;38.838;2024-01-30T03:19:28;15.85;;;7.53;;
68455;SDS011;55437;55.046;38.838;2024-01-30T03:21:54;17.80;;;7.85;;
68455;SDS011;55437;55.046;38.838;2024-01-30T03:24:20;15.63;;;6.78;;
68455;SDS011;55437;55.046;38.838;2024-01-30T03:26:47;17.02;;;7.70;;
68455;SDS011;55437;55.046;38.838;2024-01-30T03:29:12;17.85;;;7.00;;
68455;SDS011;55437;55.046;38.838;2024-01-30T03:31:39;19.70;;;8.23;;
68455;SDS011;55437;55.046;38.838;2024-01-30T03:34:05;18.13;;;7.82;;
68455;SDS011;55437;55.046;38.838;2024-01-30T03:36:31;16.27;;;5.93;;
68455;SDS011;55437;55.046;38.838;2024-01-30T03:39:00;17.52;;;7.30;;
68455;SDS011;55437;55.046;38.838;2024-01-30T03:41:26;17.30;;;7.45;;
68455;SDS011;55437;55.046;38.838;2024-01-30T03:43:52;19.35;;;8.18;;
68455;SDS011;55437;55.046;38.838;2024-01-30T03:46:18;14.90;;;6.75;;
68455;SDS011;55437;55.046;38.838;2024-01-30T03:48:47;18.15;;;7.85;;
68455;SDS011;55437;55.046;38.838;2024-01-30T03:51:13;21.05;;;7.53;;
68455;SDS011;55437;55.046;38.838;2024-01-30T03:53:41;20.50;;;7.43;;
68455;SDS011;55437;55.046;38.838;2024-01-30T03:56:08;16.83;;;6.75;;
68455;SDS011;55437;55.046;38.838;2024-01-30T03:58:34;18.02;;;7.55;;
68455;SDS011;55437;55.046;38.838;2024-01-30T04:01:00;17.83;;;7.55;;
68455;SDS011;55437;55.046;38.838;2024-01-30T04:03:26;17.00;;;7.55;;
68455;SDS011;55437;55.046;38.838;2024-01-30T04:05:53;16.45;;;7.22;;
68455;SDS011;55437;55.046;38.838;2024-01-30T04:08:19;16.13;;;7.00;;
68455;SDS011;55437;55.046;38.838;2024-01-30T04:10:46;16.05;;;7.18;;
68455;SDS011;55437;55.046;38.838;2024-01-30T04:13:12;17.30;;;7.90;;
68455;SDS011;55437;55.046;38.838;2024-01-30T04:15:39;20.30;;;7.97;;
68455;SDS011;55437;55.046;38.838;2024-01-30T04:18:05;17.55;;;7.53;;
68455;SDS011;55437;55.046;38.838;2024-01-30T04:20:31;18.02;;;7.70;;
68455;SDS011;55437;55.046;38.838;2024-01-30T04:22:57;17.40;;;7.38;;
68455;SDS011;55437;55.046;38.838;2024-01-30T04:25:23;19.27;;;7.80;;
68455;SDS011;55437;55.046;38.838;2024-01-30T04:27:49;18.98;;;7.70;;
68455;SDS011;55437;55.046;38.838;2024-01-30T04:30:15;18.77;;;7.93;;
68455;SDS011;55437;55.046;38.838;2024-01-30T04:32:41;18.77;;;7.18;;
68455;SDS011;55437;55.046;38.838;2024-01-30T04:35:07;19.13;;;7.82;;
68455;SDS011;55437;55.046;38.838;2024-01-30T04:37:32;18.42;;;7.95;;
68455;SDS011;55437;55.046;38.838;2024-01-30T04:39:58;18.10;;;7.72;;
68455;SDS011;55437;55.046;38.838;2024-01-30T04:42:24;17.38;;;7.40;;
68455;SDS011;55437;55.046;38.838;2024-01-30T04:44:50;20.70;;;7.90;;
68455;SDS011;55437;55.046;38.838;2024-01-30T04:47:16;18.02;;;7.53;;
68455;SDS011;55437;55.046;38.838;2024-01-30T04:49:42;17.58;;;7.57;;
68455;SDS011;55437;55.046;38.838;2024-01-30T04:52:08;20.00;;;8.50;;
68455;SDS011;55437;55.046;38.838;2024-01-30T04:54:34;17.02;;;7.70;;
68455;SDS011;55437;55.046;38.838;2024-01-30T04:57:01;18.55;;;7.72;;
68455;SDS011;55437;55.046;38.838;2024-01-30T04:59:28;20.55;;;7.53;;
68455;SDS011;55437;55.046;38.838;2024-01-30T05:01:54;19.55;;;8.45;;
68455;SDS011;55437;55.046;38.838;2024-01-30T05:04:20;20.33;;;8.23;;
68455;SDS011;55437;55.046;38.838;2024-01-30T05:06:47;21.15;;;8.80;;
68455;SDS011;55437;55.046;38.838;2024-01-30T05:09:13;17.70;;;7.93;;
68455;SDS011;55437;55.046;38.838;2024-01-30T05:11:39;19.65;;;8.70;;
68455;SDS011;55437;55.046;38.838;2024-01-30T05:14:06;18.85;;;8.23;;
68455;SDS011;55437;55.046;38.838;2024-01-30T05:16:34;19.10;;;8.20;;
68455;SDS011;55437;55.046;38.838;2024-01-30T05:19:00;23.00;;;8.32;;
68455;SDS011;55437;55.046;38.838;2024-01-30T05:21:26;20.55;;;8.55;;
68455;SDS011;55437;55.046;38.838;2024-01-30T05:23:52;20.55;;;7.68;;
68455;SDS011;55437;55.046;38.838;2024-01-30T05:26:18;20.63;;;9.23;;
68455;SDS011;55437;55.046;38.838;2024-01-30T05:28:44;21.48;;;8.30;;
68455;SDS011;55437;55.046;38.838;2024-01-30T05:31:10;18.58;;;8.45;;
68455;SDS011;55437;55.046;38.838;2024-01-30T05:33:36;17.02;;;7.70;;
68455;SDS011;55437;55.046;38.838;2024-01-30T05:36:02;19.73;;;8.07;;
68455;SDS011;55437;55.046;38.838;2024-01-30T05:38:28;19.20;;;7.90;;
68455;SDS011;55437;55.046;38.838;2024-01-30T05:40:55;19.80;;;8.65;;
68455;SDS011;55437;55.046;38.838;2024-01-30T05:43:23;19.83;;;8.02;;
68455;SDS011;55437;55.046;38.838;2024-01-30T05:45:49;17.55;;;7.70;;
68455;SDS011;55437;55.046;38.838;2024-01-30T05:48:16;18.20;;;8.25;;
68455;SDS011;55437;55.046;38.838;2024-01-30T05:50:42;22.73;;;9.35;;
68455;SDS011;55437;55.046;38.838;2024-01-30T05:53:08;19.80;;;7.78;;
68455;SDS011;55437;55.046;38.838;2024-01-30T05:55:34;25.55;;;9.27;;
68455;SDS011;55437;55.046;38.838;2024-01-30T05:58:00;18.90;;;8.57;;
68455;SDS011;55437;55.046;38.838;2024-01-30T06:00:26;19.65;;;8.30;;
68455;SDS011;55437;55.046;38.838;2024-01-30T06:02:52;19.17;;;8.65;;
68455;SDS011;55437;55.046;38.838;2024-01-30T06:05:18;19.30;;;8.27;;
68455;SDS011;55437;55.046;38.838;2024-01-30T06:07:44;19.52;;;8.82;;
68455;SDS011;55437;55.046;38.838;2024-01-30T06:10:09;18.90;;;8.68;;
68455;SDS011;55437;55.046;38.838;2024-01-30T06:12:36;20.63;;;7.93;;
68455;SDS011;55437;55.046;38.838;2024-01-30T06:15:03;18.38;;;8.20;;
68455;SDS011;55437;55.046;38.838;2024-01-30T06:17:31;22.92;;;8.90;;
68455;SDS011;55437;55.046;38.838;2024-01-30T06:19:58;22.38;;;8.18;;
68455;SDS011;55437;55.046;38.838;2024-01-30T06:22:25;18.52;;;8.27;;
68455;SDS011;55437;55.046;38.838;2024-01-30T06:24:52;20.48;;;8.52;;
68455;SDS011;55437;55.046;38.838;2024-01-30T06:27:17;21.88;;;9.05;;
68455;SDS011;55437;55.046;38.838;2024-01-30T06:29:44;19.02;;;8.02;;
68455;SDS011;55437;55.046;38.838;2024-01-30T06:32:11;18.15;;;8.20;;
68455;SDS011;55437;55.046;38.838;2024-01-30T06:34:38;19.30;;;8.75;;
68455;SDS011;55437;55.046;38.838;2024-01-30T06:37:06;20.55;;;9.20;;
68455;SDS011;55437;55.046;38.838;2024-01-30T06:39:32;22.27;;;9.27;;
68455;SDS011;55437;55.046;38.838;2024-01-30T06:41:58;18.27;;;7.82;;
68455;SDS011;55437;55.046;38.838;2024-01-30T06:44:25;23.65;;;9.38;;
68455;SDS011;55437;55.046;38.838;2024-01-30T06:46:50;22.25;;;9.88;;
68455;SDS011;55437;55.046;38.838;2024-01-30T06:49:16;19.52;;;9.52;;
68455;SDS011;55437;55.046;38.838;2024-01-30T06:51:42;19.23;;;9.10;;
68455;SDS011;55437;55.046;38.838;2024-01-30T06:54:08;23.58;;;9.95;;
68455;SDS011;55437;55.046;38.838;2024-01-30T06:56:59;17.98;;;8.35;;
68455;SDS011;55437;55.046;38.838;2024-01-30T06:59:25;18.35;;;8.50;;
68455;SDS011;55437;55.046;38.838;2024-01-30T07:01:50;20.67;;;8.20;;
68455;SDS011;55437;55.046;38.838;2024-01-30T07:04:16;20.67;;;9.20;;
68455;SDS011;55437;55.046;38.838;2024-01-30T07:06:43;19.42;;;8.98;;
68455;SDS011;55437;55.046;38.838;2024-01-30T07:09:09;17.80;;;8.35;;
68455;SDS011;55437;55.046;38.838;2024-01-30T07:11:35;22.35;;;8.77;;
68455;SDS011;55437;55.046;38.838;2024-01-30T07:14:01;20.38;;;9.00;;
68455;SDS011;55437;55.046;38.838;2024-01-30T07:16:30;20.48;;;9.30;;
68455;SDS011;55437;55.046;38.838;2024-01-30T07:18:56;18.67;;;8.80;;
68455;SDS011;55437;55.046;38.838;2024-01-30T07:21:22;20.40;;;9.45;;
68455;SDS011;55437;55.046;38.838;2024-01-30T07:23:56;24.40;;;9.43;;
68455;SDS011;55437;55.046;38.838;2024-01-30T07:26:23;19.98;;;8.75;;
68455;SDS011;55437;55.046;38.838;2024-01-30T07:28:49;18.88;;;8.63;;
68455;SDS011;55437;55.046;38.838;2024-01-30T07:31:15;19.52;;;9.40;;
68455;SDS011;55437;55.046;38.838;2024-01-30T07:33:43;19.27;;;8.50;;
68455;SDS011;55437;55.046;38.838;2024-01-30T07:36:09;19.55;;;9.00;;
68455;SDS011;55437;55.046;38.838;2024-01-30T07:38:35;18.85;;;8.65;;
68455;SDS011;55437;55.046;38.838;2024-01-30T07:41:02;19.50;;;8.43;;
68455;SDS011;55437;55.046;38.838;2024-01-30T07:43:29;19.60;;;9.15;;
68455;SDS011;55437;55.046;38.838;2024-01-30T07:45:54;23.65;;;9.48;;
68455;SDS011;55437;55.046;38.838;2024-01-30T07:48:21;23.42;;;8.95;;
68455;SDS011;55437;55.046;38.838;2024-01-30T07:50:46;19.08;;;8.82;;
68455;SDS011;55437;55.046;38.838;2024-01-30T07:53:12;20.42;;;8.65;;
68455;SDS011;55437;55.046;38.838;2024-01-30T07:55:57;19.95;;;9.02;;
68455;SDS011;55437;55.046;38.838;2024-01-30T07:58:41;18.40;;;9.05;;
68455;SDS011;55437;55.046;38.838;2024-01-30T08:01:07;17.10;;;8.23;;
68455;SDS011;55437;55.046;38.838;2024-01-30T08:03:33;20.20;;;8.55;;
68455;SDS011;55437;55.046;38.838;2024-01-30T08:06:00;16.13;;;7.65;;
68455;SDS011;55437;55.046;38.838;2024-01-30T08:08:28;18.88;;;9.07;;
68455;SDS011;55437;55.046;38.838;2024-01-30T08:11:01;19.70;;;8.55;;
68455;SDS011;55437;55.046;38.838;2024-01-30T08:13:27;17.02;;;8.20;;
68455;SDS011;55437;55.046;38.838;2024-01-30T08:15:53;18.48;;;8.82;;
68455;SDS011;55437;55.046;38.838;2024-01-30T08:18:21;22.90;;;8.63;;
68455;SDS011;55437;55.046;38.838;2024-01-30T08:20:47;19.67;;;7.88;;
68455;SDS011;55437;55.046;38.838;2024-01-30T08:23:14;16.48;;;8.30;;
68455;SDS011;55437;55.046;38.838;2024-01-30T08:25:40;19.70;;;9.40;;
68455;SDS011;55437;55.046;38.838;2024-01-30T08:28:06;18.98;;;8.57;;
68455;SDS011;55437;55.046;38.838;2024-01-30T08:30:32;24.15;;;8.48;;
68455;SDS011;55437;55.046;38.838;2024-01-30T08:32:59;18.25;;;7.70;;
68455;SDS011;55437;55.046;38.838;2024-01-30T08:35:28;17.55;;;8.65;;
68455;SDS011;55437;55.046;38.838;2024-01-30T08:37:56;18.63;;;8.07;;
68455;SDS011;55437;55.046;38.838;2024-01-30T08:40:22;18.48;;;8.77;;
68455;SDS011;55437;55.046;38.838;2024-01-30T08:42:48;19.58;;;8.57;;
68455;SDS011;55437;55.046;38.838;2024-01-30T08:45:14;21.83;;;9.05;;
68455;SDS011;55437;55.046;38.838;2024-01-30T08:47:40;21.98;;;9.02;;
68455;SDS011;55437;55.046;38.838;2024-01-30T08:50:06;20.50;;;9.75;;
68455;SDS011;55437;55.046;38.838;2024-01-30T08:52:33;17.38;;;7.65;;
68455;SDS011;55437;55.046;38.838;2024-01-30T08:54:59;21.70;;;8.57;;
68455;SDS011;55437;55.046;38.838;2024-01-30T08:57:25;17.77;;;8.13;;
68455;SDS011;55437;55.046;38.838;2024-01-30T08:59:54;19.10;;;9.13;;
68455;SDS011;55437;55.046;38.838;2024-01-30T09:02:20;20.73;;;8.95;;
68455;SDS011;55437;55.046;38.838;2024-01-30T09:04:46;20.00;;;8.35;;
68455;SDS011;55437;55.046;38.838;2024-01-30T09:07:30;18.58;;;7.97;;
68455;SDS011;55437;55.046;38.838;2024-01-30T09:09:57;18.08;;;8.32;;
68455;SDS011;55437;55.046;38.838;2024-01-30T09:12:23;19.77;;;8.07;;
68455;SDS011;55437;55.046;38.838;2024-01-30T09:14:49;17.65;;;7.78;;
68455;SDS011;55437;55.046;38.838;2024-01-30T09:17:15;21.10;;;9.27;;
68455;SDS011;55437;55.046;38.838;2024-01-30T09:19:41;17.85;;;8.77;;
68455;SDS011;55437;55.046;38.838;2024-01-30T09:22:07;18.55;;;8.65;;
68455;SDS011;55437;55.046;38.838;2024-01-30T09:24:33;17.02;;;7.68;;
68455;SDS011;55437;55.046;38.838;2024-01-30T09:27:17;19.77;;;8.95;;
68455;SDS011;55437;55.046;38.838;2024-01-30T09:29:43;18.33;;;8.90;;
68455;SDS011;55437;55.046;38.838;2024-01-30T09:32:30;22.20;;;9.02;;
68455;SDS011;55437;55.046;38.838;2024-01-30T09:34:56;20.70;;;8.80;;
68455;SDS011;55437;55.046;38.838;2024-01-30T09:37:22;21.40;;;8.82;;
68455;SDS011;55437;55.046;38.838;2024-01-30T09:39:49;16.05;;;7.72;;
68455;SDS011;55437;55.046;38.838;2024-01-30T09:45:02;19.33;;;8.25;;
68455;SDS011;55437;55.046;38.838;2024-01-30T09:47:40;19.58;;;9.48;;
68455;SDS011;55437;55.046;38.838;2024-01-30T09:50:27;18.52;;;9.23;;
68455;SDS011;55437;55.046;38.838;2024-01-30T09:52:53;21.60;;;8.82;;
68455;SDS011;55437;55.046;38.838;2024-01-30T09:55:22;16.55;;;7.95;;
68455;SDS011;55437;55.046;38.838;2024-01-30T09:57:49;18.63;;;8.85;;
68455;SDS011;55437;55.046;38.838;2024-01-30T10:00:15;19.50;;;9.00;;
68455;SDS011;55437;55.046;38.838;2024-01-30T10:02:41;20.17;;;8.73;;
68455;SDS011;55437;55.046;38.838;2024-01-30T10:05:08;22.52;;;9.13;;
68455;SDS011;55437;55.046;38.838;2024-01-30T10:07:34;21.67;;;9.07;;
68455;SDS011;55437;55.046;38.838;2024-01-30T10:10:00;21.17;;;8.93;;
68455;SDS011;55437;55.046;38.838;2024-01-30T10:12:29;21.60;;;9.25;;
68455;SDS011;55437;55.046;38.838;2024-01-30T10:14:56;23.55;;;9.77;;
68455;SDS011;55437;55.046;38.838;2024-01-30T10:17:24;19.15;;;8.45;;
68455;SDS011;55437;55.046;38.838;2024-01-30T10:19:54;25.98;;;8.90;;
68455;SDS011;55437;55.046;38.838;2024-01-30T10:22:20;22.30;;;9.32;;
68455;SDS011;55437;55.046;38.838;2024-01-30T10:24:46;26.75;;;9.75;;
68455;SDS011;55437;55.046;38.838;2024-01-30T10:27:13;20.73;;;9.20;;
68455;SDS011;55437;55.046;38.838;2024-01-30T10:29:40;20.13;;;8.85;;
68455;SDS011;55437;55.046;38.838;2024-01-30T10:32:06;23.20;;;9.43;;
68455;SDS011;55437;55.046;38.838;2024-01-30T10:34:33;22.98;;;9.65;;
68455;SDS011;55437;55.046;38.838;2024-01-30T10:37:10;20.25;;;9.70;;
68455;SDS011;55437;55.046;38.838;2024-01-30T10:39:46;20.15;;;9.85;;
68455;SDS011;55437;55.046;38.838;2024-01-30T10:45:08;21.05;;;9.25;;
68455;SDS011;55437;55.046;38.838;2024-01-30T10:47:39;23.95;;;9.48;;
68455;SDS011;55437;55.046;38.838;2024-01-30T10:50:07;18.10;;;9.38;;
68455;SDS011;55437;55.046;38.838;2024-01-30T10:52:34;22.15;;;8.93;;
68455;SDS011;55437;55.046;38.838;2024-01-30T10:55:01;22.13;;;9.98;;
68455;SDS011;55437;55.046;38.838;2024-01-30T10:57:30;23.30;;;9.52;;
68455;SDS011;55437;55.046;38.838;2024-01-30T10:59:59;20.80;;;9.40;;
68455;SDS011;55437;55.046;38.838;2024-01-30T11:02:29;20.27;;;9.93;;
68455;SDS011;55437;55.046;38.838;2024-01-30T11:04:59;23.45;;;11.07;;
68455;SDS011;55437;55.046;38.838;2024-01-30T11:07:26;17.85;;;8.88;;
68455;SDS011;55437;55.046;38.838;2024-01-30T11:09:59;20.25;;;8.98;;
68455;SDS011;55437;55.046;38.838;2024-01-30T11:12:27;22.75;;;9.75;;
68455;SDS011;55437;55.046;38.838;2024-01-30T11:20:25;20.27;;;9.13;;
68455;SDS011;55437;55.046;38.838;2024-01-30T11:22:57;19.63;;;9.95;;
68455;SDS011;55437;55.046;38.838;2024-01-30T11:25:23;21.42;;;10.00;;
68455;SDS011;55437;55.046;38.838;2024-01-30T11:27:51;23.67;;;10.23;;
68455;SDS011;55437;55.046;38.838;2024-01-30T11:30:24;27.20;;;10.82;;
68455;SDS011;55437;55.046;38.838;2024-01-30T11:32:58;21.38;;;9.85;;
68455;SDS011;55437;55.046;38.838;2024-01-30T11:35:48;23.17;;;9.32;;
68455;SDS011;55437;55.046;38.838;2024-01-30T11:38:16;23.02;;;10.25;;
68455;SDS011;55437;55.046;38.838;2024-01-30T11:40:42;21.92;;;9.40;;
68455;SDS011;55437;55.046;38.838;2024-01-30T11:43:09;20.90;;;10.35;;
68455;SDS011;55437;55.046;38.838;2024-01-30T11:45:36;21.20;;;9.80;;
68455;SDS011;55437;55.046;38.838;2024-01-30T11:48:03;27.35;;;10.40;;
68455;SDS011;55437;55.046;38.838;2024-01-30T11:53:21;24.92;;;10.25;;
68455;SDS011;55437;55.046;38.838;2024-01-30T11:55:51;23.92;;;9.85;;
68455;SDS011;55437;55.046;38.838;2024-01-30T11:58:16;22.52;;;10.23;;
68455;SDS011;55437;55.046;38.838;2024-01-30T12:00:42;24.15;;;10.02;;
68455;SDS011;55437;55.046;38.838;2024-01-30T12:03:17;20.77;;;10.27;;
68455;SDS011;55437;55.046;38.838;2024-01-30T12:05:43;20.92;;;9.88;;
68455;SDS011;55437;55.046;38.838;2024-01-30T12:08:16;21.23;;;9.50;;
68455;SDS011;55437;55.046;38.838;2024-01-30T12:10:42;24.45;;;10.02;;
68455;SDS011;55437;55.046;38.838;2024-01-30T12:13:08;21.45;;;9.50;;
68455;SDS011;55437;55.046;38.838;2024-01-30T12:15:35;18.80;;;8.73;;
68455;SDS011;55437;55.046;38.838;2024-01-30T12:18:05;23.75;;;10.18;;
68455;SDS011;55437;55.046;38.838;2024-01-30T12:20:31;24.42;;;10.32;;
68455;SDS011;55437;55.046;38.838;2024-01-30T12:22:57;26.95;;;10.25;;
68455;SDS011;55437;55.046;38.838;2024-01-30T12:25:23;23.80;;;9.85;;
68455;SDS011;55437;55.046;38.838;2024-01-30T12:27:50;24.73;;;10.77;;
68455;SDS011;55437;55.046;38.838;2024-01-30T12:30:18;27.15;;;10.13;;
68455;SDS011;55437;55.046;38.838;2024-01-30T12:32:46;21.38;;;9.95;;
68455;SDS011;55437;55.046;38.838;2024-01-30T12:35:14;27.60;;;10.57;;
68455;SDS011;55437;55.046;38.838;2024-01-30T12:37:42;22.88;;;10.02;;
68455;SDS011;55437;55.046;38.838;2024-01-30T12:40:09;25.15;;;10.77;;
68455;SDS011;55437;55.046;38.838;2024-01-30T12:42:37;21.73;;;10.02;;
68455;SDS011;55437;55.046;38.838;2024-01-30T12:45:04;24.02;;;10.70;;
68455;SDS011;55437;55.046;38.838;2024-01-30T12:47:31;25.40;;;10.93;;
68455;SDS011;55437;55.046;38.838;2024-01-30T12:49:58;26.33;;;10.88;;
68455;SDS011;55437;55.046;38.838;2024-01-30T12:52:24;22.52;;;10.43;;
68455;SDS011;55437;55.046;38.838;2024-01-30T12:54:54;24.58;;;11.35;;
68455;SDS011;55437;55.046;38.838;2024-01-30T12:57:20;24.63;;;10.27;;
68455;SDS011;55437;55.046;38.838;2024-01-30T12:59:46;26.15;;;10.80;;
68455;SDS011;55437;55.046;38.838;2024-01-30T13:02:13;24.98;;;11.05;;
68455;SDS011;55437;55.046;38.838;2024-01-30T13:04:39;24.48;;;10.93;;
68455;SDS011;55437;55.046;38.838;2024-01-30T13:07:24;22.38;;;10.60;;
68455;SDS011;55437;55.046;38.838;2024-01-30T13:09:49;27.25;;;11.52;;
68455;SDS011;55437;55.046;38.838;2024-01-30T13:12:34;26.85;;;9.77;;
68455;SDS011;55437;55.046;38.838;2024-01-30T13:15:01;27.25;;;11.93;;
68455;SDS011;55437;55.046;38.838;2024-01-30T13:17:54;24.77;;;11.00;;
68455;SDS011;55437;55.046;38.838;2024-01-30T13:20:20;24.50;;;10.68;;
68455;SDS011;55437;55.046;38.838;2024-01-30T13:22:49;23.13;;;10.38;;
68455;SDS011;55437;55.046;38.838;2024-01-30T13:25:16;29.70;;;10.95;;
68455;SDS011;55437;55.046;38.838;2024-01-30T13:27:43;24.17;;;10.52;;
68455;SDS011;55437;55.046;38.838;2024-01-30T13:30:09;25.00;;;11.48;;
68455;SDS011;55437;55.046;38.838;2024-01-30T13:32:36;26.30;;;11.20;;
68455;SDS011;55437;55.046;38.838;2024-01-30T13:35:03;23.98;;;11.02;;
68455;SDS011;55437;55.046;38.838;2024-01-30T13:37:31;24.80;;;10.98;;
68455;SDS011;55437;55.046;38.838;2024-01-30T13:39:57;24.85;;;10.65;;
68455;SDS011;55437;55.046;38.838;2024-01-30T13:42:23;25.02;;;11.32;;
68455;SDS011;55437;55.046;38.838;2024-01-30T13:44:49;22.85;;;10.68;;
68455;SDS011;55437;55.046;38.838;2024-01-30T13:47:16;24.23;;;10.73;;
68455;SDS011;55437;55.046;38.838;2024-01-30T13:49:44;24.42;;;10.30;;
68455;SDS011;55437;55.046;38.838;2024-01-30T13:52:12;28.88;;;12.27;;
68455;SDS011;55437;55.046;38.838;2024-01-30T13:54:38;27.08;;;11.25;;
68455;SDS011;55437;55.046;38.838;2024-01-30T13:57:04;24.35;;;10.10;;
68455;SDS011;55437;55.046;38.838;2024-01-30T13:59:33;23.88;;;10.90;;
68455;SDS011;55437;55.046;38.838;2024-01-30T14:01:58;24.77;;;10.05;;
68455;SDS011;55437;55.046;38.838;2024-01-30T14:04:24;24.90;;;10.77;;
68455;SDS011;55437;55.046;38.838;2024-01-30T14:06:51;24.80;;;10.45;;
68455;SDS011;55437;55.046;38.838;2024-01-30T14:09:17;24.60;;;10.88;;
68455;SDS011;55437;55.046;38.838;2024-01-30T14:11:43;22.23;;;9.60;;
68455;SDS011;55437;55.046;38.838;2024-01-30T14:14:09;24.85;;;11.20;;
68455;SDS011;55437;55.046;38.838;2024-01-30T14:16:35;23.83;;;10.60;;
68455;SDS011;55437;55.046;38.838;2024-01-30T14:19:01;25.55;;;11.07;;
68455;SDS011;55437;55.046;38.838;2024-01-30T14:21:27;32.42;;;10.48;;
68455;SDS011;55437;55.046;38.838;2024-01-30T14:23:53;31.08;;;11.85;;
68455;SDS011;55437;55.046;38.838;2024-01-30T14:26:19;23.83;;;10.85;;
68455;SDS011;55437;55.046;38.838;2024-01-30T14:28:46;27.63;;;11.40;;
68455;SDS011;55437;55.046;38.838;2024-01-30T14:31:12;26.63;;;11.10;;
68455;SDS011;55437;55.046;38.838;2024-01-30T14:33:39;23.02;;;10.48;;